American Lake, Washington
Current Conditions -  °F | °C
As of 2:58 AM on Friday 24 Oct 2014 (Local Time) from KGRF Reporting Station
Drizzle Drizzle  
Wind Chill:   Ceiling: 5500
Heat Index:   Visibility: 10mi
Dew Point:   Wind: 5mph
Humidity: 99%   Direction: 110°ESE
Pressure: 30.03"   Gusts: NA
Location:  47.1451°N, 122.578°W
Report Text: KGRF 240958Z AUTO 11004KT 10SM DZ SCT045 OVC055 09/09 A3003 RMK AO2 RAB0856E0915DZE0856B0915 SLP173 P0000 T00910090 $
Loading
Personal Weather Stations






























Interactive Weather Map
Tropical Storm Tracking
New forecast layout! Learn more

10-Day Weather Forecast

Advertisements
Track Severe Weather on mobile